Time;durP1;ratioP1;P1;durP2;ratioP2;P2;SDS_P1;SDS_P2;PMS_P1;PMS_P2;Temp;Humidity;BMP_temperature;BMP_pressure;BME280_temperature;BME280_humidity;BME280_pressure;Samples;Min_cycle;Max_cycle;Signal;HPM_P1;HPM_P2
2022/08/29 00:00:34;;;;;;;5.28;4.13;;;15.70;99.90;;;;;;5082492;28;20020;-32
2022/08/29 00:03:01;;;;;;;5.45;4.32;;;15.80;99.90;;;;;;5083212;28;20028;-33
2022/08/29 00:05:31;;;;;;;5.22;4.15;;;15.70;99.90;;;;;;5070560;28;20055;-33
2022/08/29 00:07:58;;;;;;;5.55;3.80;;;15.70;99.90;;;;;;5087377;28;20068;-32
2022/08/29 00:10:24;;;;;;;4.10;3.70;;;15.70;99.90;;;;;;5085057;28;20070;-31
2022/08/29 00:12:50;;;;;;;3.97;3.58;;;15.70;99.90;;;;;;5087229;28;20674;-32
2022/08/29 00:15:17;;;;;;;3.30;3.00;;;15.70;99.90;;;;;;5069604;28;20036;-32
2022/08/29 00:17:43;;;;;;;3.47;3.17;;;15.70;99.90;;;;;;5083009;28;20050;-32
2022/08/29 00:20:14;;;;;;;3.97;3.33;;;15.70;99.90;;;;;;5086639;28;20036;-35
2022/08/29 00:22:41;;;;;;;3.45;3.15;;;15.70;99.90;;;;;;5085140;28;20035;-31
2022/08/29 00:25:09;;;;;;;3.75;3.40;;;15.70;99.90;;;;;;5083571;28;20694;-32
2022/08/29 00:27:35;;;;;;;4.63;4.10;;;15.50;99.90;;;;;;5087369;28;20051;-36
2022/08/29 00:30:01;;;;;;;6.63;4.43;;;15.40;99.90;;;;;;5083240;28;20040;-32
2022/08/29 00:32:33;;;;;;;6.93;3.63;;;15.20;99.90;;;;;;5085655;28;20119;-32
2022/08/29 00:35:00;;;;;;;3.67;3.22;;;15.10;99.90;;;;;;5083458;28;20489;-34
2022/08/29 00:37:26;;;;;;;3.60;3.30;;;15.10;99.90;;;;;;5082904;28;20106;-35
2022/08/29 00:39:52;;;;;;;3.38;3.08;;;15.30;99.90;;;;;;5085102;28;20043;-33
2022/08/29 00:42:17;;;;;;;3.50;3.20;;;15.30;99.90;;;;;;5087486;28;20024;-32
2022/08/29 00:44:45;;;;;;;2.80;2.60;;;15.30;99.90;;;;;;5088139;28;20100;-34
2022/08/29 00:47:11;;;;;;;2.35;2.25;;;14.90;99.90;;;;;;5085601;28;20084;-32
2022/08/29 00:49:41;;;;;;;2.63;2.42;;;14.60;99.90;;;;;;5089299;28;20032;-31
2022/08/29 00:52:15;;;;;;;2.67;2.47;;;14.60;99.90;;;;;;5084803;28;20039;-32
2022/08/29 00:54:43;;;;;;;2.83;2.63;;;14.70;99.90;;;;;;5081721;28;20028;-32
2022/08/29 00:57:10;;;;;;;2.80;2.60;;;14.70;99.90;;;;;;5084757;28;20093;-32
2022/08/29 00:59:38;;;;;;;3.25;2.72;;;14.90;99.90;;;;;;5083714;28;20024;-36
2022/08/29 01:02:06;;;;;;;3.90;3.50;;;15.00;99.90;;;;;;5082583;28;20032;-33
2022/08/29 01:04:32;;;;;;;5.47;4.10;;;15.10;99.90;;;;;;5078682;28;20392;-33
2022/08/29 01:06:58;;;;;;;5.70;3.60;;;15.20;99.90;;;;;;5083185;28;20031;-33
2022/08/29 01:09:25;;;;;;;5.07;3.65;;;15.20;99.90;;;;;;5083425;28;20346;-32
2022/08/29 01:14:36;;;;;;;6.10;3.92;;;15.30;99.90;;;;;;5077927;28;20031;-32
2022/08/29 01:17:03;;;;;;;5.97;4.30;;;15.30;99.90;;;;;;5085256;28;20032;-31
2022/08/29 01:20:18;;;;;;;5.07;3.83;;;15.30;99.90;;;;;;5086201;28;20509;-32
2022/08/29 01:22:43;;;;;;;5.53;4.20;;;15.30;99.90;;;;;;4996024;28;20113;-34
2022/08/29 01:25:15;;;;;;;4.60;4.10;;;15.20;99.90;;;;;;5058664;28;20100;-35
2022/08/29 01:27:45;;;;;;;5.97;4.13;;;15.10;99.90;;;;;;5081350;28;20051;-31
2022/08/29 01:30:11;;;;;;;4.47;3.90;;;15.10;99.90;;;;;;5083780;28;20032;-34
2022/08/29 01:32:37;;;;;;;4.95;4.00;;;15.20;99.90;;;;;;5081491;28;20074;-33
2022/08/29 01:35:04;;;;;;;4.15;3.67;;;15.20;99.90;;;;;;5084018;28;20036;-31
2022/08/29 01:37:33;;;;;;;7.20;3.97;;;15.20;99.90;;;;;;5086488;28;20028;-32
2022/08/29 01:39:59;;;;;;;5.25;4.32;;;15.30;99.90;;;;;;5067106;28;20028;-33
2022/08/29 01:42:24;;;;;;;4.90;4.05;;;15.30;99.90;;;;;;5080619;28;20538;-31
2022/08/29 01:44:56;;;;;;;4.95;4.00;;;15.30;99.90;;;;;;5086172;28;20024;-33
2022/08/29 01:47:33;;;;;;;5.10;3.85;;;15.30;99.90;;;;;;5081449;28;20040;-36
2022/08/29 01:49:58;;;;;;;4.18;3.60;;;15.30;99.90;;;;;;5086073;28;20499;-33
2022/08/29 01:52:24;;;;;;;4.50;3.50;;;15.30;99.90;;;;;;5081095;28;20040;-33
2022/08/29 01:54:50;;;;;;;3.72;3.08;;;15.30;99.90;;;;;;5086493;28;20114;-31
2022/08/29 01:57:16;;;;;;;3.45;3.10;;;15.30;99.90;;;;;;5085498;28;20279;-31
2022/08/29 01:59:43;;;;;;;3.83;3.42;;;15.30;99.90;;;;;;5086454;28;20034;-32
2022/08/29 02:02:20;;;;;;;2.80;2.60;;;15.30;99.90;;;;;;5083438;28;20032;-31
2022/08/29 02:04:47;;;;;;;3.30;3.00;;;15.30;99.90;;;;;;5086422;28;20032;-32
2022/08/29 02:07:18;;;;;;;3.80;3.10;;;15.30;99.90;;;;;;5083880;28;20036;-32
2022/08/29 02:09:45;;;;;;;3.63;3.30;;;15.30;99.90;;;;;;5078517;28;20043;-33
2022/08/29 02:12:11;;;;;;;14.73;4.00;;;15.20;99.90;;;;;;5084054;28;20118;-32
2022/08/29 02:14:37;;;;;;;3.45;3.13;;;15.10;99.90;;;;;;5074605;28;20028;-31
2022/08/29 02:17:04;;;;;;;6.97;3.47;;;14.90;99.90;;;;;;5067611;28;20489;-31
2022/08/29 02:19:30;;;;;;;4.25;3.72;;;15.00;99.90;;;;;;5083794;28;20505;-31
2022/08/29 02:21:56;;;;;;;8.95;3.60;;;15.00;99.90;;;;;;5082927;28;20530;-31
2022/08/29 02:24:22;;;;;;;9.57;3.65;;;15.00;99.90;;;;;;5084736;28;20016;-31
2022/08/29 02:26:49;;;;;;;3.83;3.53;;;14.90;99.90;;;;;;5081608;28;20132;-33
2022/08/29 02:29:15;;;;;;;3.90;3.22;;;14.90;99.90;;;;;;5082326;28;20028;-34
2022/08/29 02:31:42;;;;;;;3.45;3.15;;;15.00;99.90;;;;;;5075558;28;20043;-35
2022/08/29 02:34:08;;;;;;;3.05;2.83;;;15.00;99.90;;;;;;5066546;28;20542;-31
2022/08/29 02:36:35;;;;;;;9.45;3.78;;;15.00;99.90;;;;;;5080422;28;20131;-33
2022/08/29 02:39:02;;;;;;;4.03;3.42;;;15.00;99.90;;;;;;5077121;28;20040;-32
2022/08/29 02:41:27;;;;;;;4.30;3.65;;;15.00;99.90;;;;;;5080654;28;20394;-35
2022/08/29 02:43:53;;;;;;;4.00;3.60;;;15.00;99.90;;;;;;5078034;28;20259;-32
2022/08/29 02:46:19;;;;;;;4.95;3.50;;;15.00;99.90;;;;;;5083310;28;20427;-31
2022/08/29 02:48:45;;;;;;;3.53;2.90;;;15.00;99.90;;;;;;5082695;28;20039;-31
2022/08/29 02:51:23;;;;;;;3.85;3.13;;;15.00;99.90;;;;;;5082794;28;20024;-32
2022/08/29 02:53:49;;;;;;;4.00;3.60;;;15.00;99.90;;;;;;5080102;28;20033;-33
2022/08/29 02:56:15;;;;;;;4.45;3.92;;;15.00;99.90;;;;;;5083960;28;20144;-31
2022/08/29 02:58:41;;;;;;;4.20;3.80;;;15.00;99.90;;;;;;5081076;28;20081;-31
2022/08/29 03:01:08;;;;;;;6.75;4.20;;;15.00;99.90;;;;;;5083364;28;20085;-32
2022/08/29 03:03:34;;;;;;;9.85;3.83;;;15.00;99.90;;;;;;5084158;28;20031;-31
2022/08/29 03:06:00;;;;;;;4.38;3.83;;;15.00;99.90;;;;;;5084029;28;20473;-32
2022/08/29 03:08:26;;;;;;;5.05;4.55;;;15.00;99.90;;;;;;5082108;28;20024;-33
2022/08/29 03:10:51;;;;;;;4.63;4.10;;;15.00;99.90;;;;;;5078990;28;20436;-33
2022/08/29 03:13:18;;;;;;;5.53;4.30;;;14.90;99.90;;;;;;5080867;28;20021;-30
2022/08/29 03:15:43;;;;;;;6.25;4.45;;;14.90;99.90;;;;;;5083048;28;20032;-32
2022/08/29 03:18:09;;;;;;;6.53;4.88;;;14.90;99.90;;;;;;5081317;28;20043;-33
2022/08/29 03:20:37;;;;;;;5.80;4.63;;;15.00;99.90;;;;;;5083669;28;20047;-35
2022/08/29 03:23:04;;;;;;;5.32;4.45;;;14.90;99.90;;;;;;5079036;28;20055;-32
2022/08/29 03:25:30;;;;;;;5.30;4.43;;;14.90;99.90;;;;;;5083913;28;20028;-32
2022/08/29 03:27:58;;;;;;;6.32;4.68;;;15.00;99.90;;;;;;5064583;28;20024;-31
2022/08/29 03:30:23;;;;;;;4.72;4.25;;;15.00;99.90;;;;;;5084749;28;20060;-32
2022/08/29 03:32:49;;;;;;;5.07;4.57;;;15.00;99.90;;;;;;5079966;28;20389;-32
2022/08/29 03:35:17;;;;;;;8.90;4.55;;;14.90;99.90;;;;;;5064193;28;20036;-31
2022/08/29 03:37:43;;;;;;;5.03;4.47;;;14.90;99.90;;;;;;5081535;28;20340;-32
2022/08/29 03:40:09;;;;;;;7.30;5.65;;;14.80;99.90;;;;;;5080560;28;20366;-31
2022/08/29 03:42:34;;;;;;;4.90;4.05;;;14.70;99.90;;;;;;5083494;28;20051;-32
2022/08/29 03:45:07;;;;;;;5.63;3.97;;;14.70;99.90;;;;;;5082993;28;20114;-31
2022/08/29 03:47:33;;;;;;;5.20;4.30;;;14.70;99.90;;;;;;5083416;28;20085;-30
2022/08/29 03:49:59;;;;;;;6.10;4.63;;;14.70;99.90;;;;;;5081454;28;20035;-34
2022/08/29 03:52:25;;;;;;;6.13;4.20;;;14.80;99.90;;;;;;5084161;28;20095;-34
2022/08/29 03:54:51;;;;;;;6.13;4.32;;;14.80;99.90;;;;;;5083465;28;20020;-31
2022/08/29 03:57:16;;;;;;;5.38;4.15;;;14.80;99.90;;;;;;5085686;28;20493;-31
2022/08/29 03:59:42;;;;;;;4.40;3.97;;;14.70;99.90;;;;;;5086001;28;20648;-31
2022/08/29 04:02:08;;;;;;;4.28;3.80;;;14.70;99.90;;;;;;5085969;28;20421;-32
2022/08/29 04:05:19;;;;;;;4.40;3.85;;;14.70;99.90;;;;;;5084898;28;20388;-33
2022/08/29 04:07:19;;;;;;;4.07;3.67;;;14.70;99.90;;;;;;5071376;28;20071;-33
2022/08/29 04:09:45;;;;;;;79.15;9.43;;;14.60;99.90;;;;;;5087305;28;20370;-31
2022/08/29 04:12:12;;;;;;;4.03;3.63;;;14.30;99.90;;;;;;5083811;28;20062;-31
2022/08/29 04:14:39;;;;;;;3.85;3.55;;;14.40;99.90;;;;;;5087863;28;20491;-31
2022/08/29 04:17:05;;;;;;;5.80;4.38;;;14.50;99.90;;;;;;5084412;28;20093;-31
2022/08/29 04:19:31;;;;;;;5.35;3.90;;;14.60;99.90;;;;;;5087134;28;20036;-34
2022/08/29 04:21:57;;;;;;;4.22;3.72;;;14.60;99.90;;;;;;5083023;28;20078;-34
2022/08/29 04:24:23;;;;;;;4.55;4.07;;;14.60;99.90;;;;;;5087033;28;20176;-34
2022/08/29 04:26:49;;;;;;;4.82;3.65;;;14.70;99.90;;;;;;5083583;28;20036;-33
2022/08/29 04:29:15;;;;;;;6.53;3.17;;;14.60;99.90;;;;;;5088199;28;20473;-31
2022/08/29 04:31:42;;;;;;;5.70;3.70;;;14.70;99.90;;;;;;5080636;28;21223;-32
2022/08/29 04:34:10;;;;;;;4.15;3.70;;;14.70;99.90;;;;;;5082854;28;20431;-33
2022/08/29 04:36:38;;;;;;;3.88;3.53;;;14.60;99.90;;;;;;5087101;28;20024;-36
2022/08/29 04:39:05;;;;;;;7.82;3.53;;;14.70;99.90;;;;;;5086432;28;20081;-33
2022/08/29 04:41:31;;;;;;;11.95;5.30;;;14.70;99.90;;;;;;5086597;28;20044;-31
2022/08/29 04:43:56;;;;;;;4.47;3.90;;;14.50;99.90;;;;;;5087762;28;20397;-34
2022/08/29 04:46:22;;;;;;;4.25;3.72;;;14.30;99.90;;;;;;5086873;28;20021;-32
2022/08/29 04:48:48;;;;;;;4.82;3.45;;;14.30;99.90;;;;;;5086594;28;20381;-33
2022/08/29 04:51:13;;;;;;;21.40;5.22;;;14.40;99.90;;;;;;5085852;28;20024;-32
2022/08/29 04:53:40;;;;;;;7.88;4.60;;;14.10;99.90;;;;;;5087931;28;20020;-31
2022/08/29 04:56:11;;;;;;;10.15;4.50;;;14.20;99.90;;;;;;5084097;28;20032;-32
2022/08/29 04:58:39;;;;;;;20.33;6.05;;;14.10;99.90;;;;;;5087131;28;20036;-31
2022/08/29 05:01:05;;;;;;;9.90;6.03;;;14.20;99.90;;;;;;5085887;28;20032;-33
2022/08/29 05:03:32;;;;;;;7.78;5.40;;;14.00;99.90;;;;;;5081224;28;20111;-33
2022/08/29 05:06:00;;;;;;;7.32;4.78;;;14.10;99.90;;;;;;5077693;28;20033;-33
2022/08/29 05:08:27;;;;;;;6.05;4.57;;;14.20;99.90;;;;;;5085636;28;20296;-32
2022/08/29 05:10:54;;;;;;;4.93;4.22;;;14.10;99.90;;;;;;5083444;28;20027;-33
2022/08/29 05:13:20;;;;;;;5.60;4.40;;;14.20;99.90;;;;;;5086183;28;20385;-33
2022/08/29 05:15:45;;;;;;;4.53;4.00;;;14.30;99.90;;;;;;5082906;28;20043;-31
2022/08/29 05:18:12;;;;;;;4.10;3.42;;;14.30;99.90;;;;;;5083818;28;20465;-31
2022/08/29 05:20:41;;;;;;;3.85;3.53;;;14.40;99.90;;;;;;5085472;28;20051;-32
2022/08/29 05:23:08;;;;;;;3.35;3.05;;;14.40;99.90;;;;;;5080727;28;20489;-32
2022/08/29 05:25:34;;;;;;;5.28;3.03;;;14.50;99.90;;;;;;5081277;28;21181;-31
2022/08/29 05:28:00;;;;;;;5.90;3.30;;;14.50;99.90;;;;;;5084117;28;20043;-32
2022/08/29 05:30:26;;;;;;;11.75;5.05;;;14.50;99.90;;;;;;5081863;28;20027;-32
2022/08/29 05:32:53;;;;;;;10.18;3.85;;;14.50;99.90;;;;;;5085135;28;20523;-33
2022/08/29 05:35:19;;;;;;;3.30;3.00;;;14.50;99.90;;;;;;5080236;28;20055;-36
2022/08/29 05:37:45;;;;;;;3.65;3.08;;;14.50;99.90;;;;;;5086038;28;20028;-32
2022/08/29 05:40:10;;;;;;;6.05;3.17;;;14.50;99.90;;;;;;5076756;28;20032;-32
2022/08/29 05:42:36;;;;;;;13.93;3.78;;;14.50;99.90;;;;;;5083417;28;20455;-32
2022/08/29 05:45:04;;;;;;;12.23;3.90;;;14.50;99.90;;;;;;5080929;28;20025;-31
2022/08/29 05:47:30;;;;;;;2.90;2.70;;;14.40;99.90;;;;;;5083047;28;20043;-33
2022/08/29 05:49:56;;;;;;;3.38;3.08;;;14.40;99.90;;;;;;5080901;28;20028;-31
2022/08/29 05:52:22;;;;;;;3.72;3.30;;;14.50;99.90;;;;;;5081942;28;20090;-34
2022/08/29 05:54:48;;;;;;;3.50;3.20;;;14.50;99.90;;;;;;5086467;28;20032;-32
2022/08/29 05:57:18;;;;;;;8.95;3.20;;;14.60;99.90;;;;;;5079633;28;20467;-32
2022/08/29 05:59:44;;;;;;;3.22;2.90;;;14.60;99.90;;;;;;5085263;28;20024;-31
2022/08/29 06:02:10;;;;;;;4.03;3.55;;;14.60;99.90;;;;;;5083351;28;20040;-33
2022/08/29 06:04:37;;;;;;;5.60;3.85;;;14.60;99.90;;;;;;5084640;28;20483;-32
2022/08/29 06:07:04;;;;;;;4.72;4.10;;;14.70;99.90;;;;;;5085458;28;20047;-32
2022/08/29 06:09:30;;;;;;;9.35;3.85;;;14.80;99.90;;;;;;5085465;28;20409;-35
2022/08/29 06:11:57;;;;;;;24.98;5.32;;;14.80;99.90;;;;;;5082957;28;20213;-31
2022/08/29 06:14:23;;;;;;;35.00;7.18;;;14.80;99.90;;;;;;5082343;28;20024;-33
2022/08/29 06:16:49;;;;;;;48.88;8.45;;;14.80;99.90;;;;;;5082888;28;20427;-31
2022/08/29 06:19:14;;;;;;;28.85;7.03;;;14.60;99.90;;;;;;5080549;28;20077;-33
2022/08/29 06:21:40;;;;;;;12.65;5.95;;;14.60;99.90;;;;;;5081228;28;20127;-31
2022/08/29 06:24:07;;;;;;;15.57;6.82;;;14.70;99.90;;;;;;5085824;28;20089;-32
2022/08/29 06:26:33;;;;;;;12.25;6.13;;;14.80;99.90;;;;;;5072886;28;20028;-33
2022/08/29 06:28:59;;;;;;;10.15;6.35;;;14.80;99.90;;;;;;5078114;28;20035;-33
2022/08/29 06:31:27;;;;;;;17.60;6.47;;;14.90;99.90;;;;;;5079484;28;20032;-31
2022/08/29 06:33:55;;;;;;;47.47;9.85;;;15.00;99.90;;;;;;5085531;28;20032;-34
2022/08/29 06:36:24;;;;;;;14.13;7.32;;;15.00;99.90;;;;;;5080601;28;20036;-31
2022/08/29 06:38:50;;;;;;;;;;;14.90;99.90;;;;;;5083382;28;20032;-31
2022/08/29 06:41:16;;;;;;;12.05;6.32;;;15.00;99.90;;;;;;5079010;28;19945;-31
2022/08/29 06:43:42;;;;;;;10.57;6.40;;;15.10;99.90;;;;;;5084303;28;20385;-31
2022/08/29 06:46:28;;;;;;;15.85;8.95;;;15.20;99.90;;;;;;5081047;28;20111;-31
2022/08/29 06:48:55;;;;;;;39.92;10.50;;;15.20;99.90;;;;;;5084252;28;20039;-31
2022/08/29 06:51:21;;;;;;;33.00;9.55;;;15.10;99.90;;;;;;5082014;28;20056;-32
2022/08/29 06:53:47;;;;;;;45.28;10.85;;;14.90;99.90;;;;;;5084645;28;20028;-32
2022/08/29 06:56:13;;;;;;;17.88;10.00;;;14.90;99.90;;;;;;5083090;28;20028;-33
2022/08/29 06:58:39;;;;;;;22.67;11.30;;;14.90;99.90;;;;;;5085326;28;20370;-36
2022/08/29 07:01:06;;;;;;;18.70;10.35;;;15.00;99.90;;;;;;5080385;28;21260;-31
2022/08/29 07:03:32;;;;;;;22.58;11.38;;;15.10;99.90;;;;;;5080477;28;20025;-31
2022/08/29 07:05:58;;;;;;;18.40;10.07;;;15.20;99.90;;;;;;5081412;28;20748;-31
2022/08/29 07:08:23;;;;;;;19.00;10.43;;;15.40;99.90;;;;;;5086222;28;20024;-31
2022/08/29 07:10:49;;;;;;;19.17;9.90;;;15.60;99.90;;;;;;5079183;28;20056;-36
2022/08/29 07:13:14;;;;;;;17.00;10.05;;;15.70;99.90;;;;;;5082180;28;20035;-31
2022/08/29 07:15:40;;;;;;;18.83;11.10;;;15.70;99.90;;;;;;5084936;28;20040;-33
2022/08/29 07:18:06;;;;;;;17.15;10.43;;;15.80;99.90;;;;;;5080402;28;20492;-31
2022/08/29 07:20:32;;;;;;;18.40;11.35;;;15.90;99.90;;;;;;5084446;28;20113;-33
2022/08/29 07:22:57;;;;;;;23.08;11.85;;;16.10;99.90;;;;;;5079675;28;20021;-34
2022/08/29 07:25:23;;;;;;;20.20;11.50;;;16.20;99.90;;;;;;5061914;28;20021;-32
2022/08/29 07:27:50;;;;;;;18.83;11.18;;;16.30;99.90;;;;;;5064009;28;20028;-32
2022/08/29 07:30:16;;;;;;;20.63;11.95;;;16.40;99.90;;;;;;5083424;28;21168;-32
2022/08/29 07:32:44;;;;;;;18.75;10.82;;;16.50;99.90;;;;;;5088517;28;20032;-32
2022/08/29 07:35:15;;;;;;;19.50;12.07;;;16.50;99.90;;;;;;5089384;28;20039;-32
2022/08/29 07:37:41;;;;;;;21.73;12.20;;;16.60;99.90;;;;;;5088370;28;20671;-31
2022/08/29 07:40:10;;;;;;;19.13;11.52;;;16.60;99.90;;;;;;5088809;28;20083;-32
2022/08/29 07:42:36;;;;;;;17.02;10.45;;;16.60;99.90;;;;;;5082949;28;20037;-32
2022/08/29 07:45:05;;;;;;;22.65;11.55;;;16.80;99.90;;;;;;5078616;28;20028;-31
2022/08/29 07:47:31;;;;;;;;;;;17.10;99.90;;;;;;5084549;28;20085;-34
2022/08/29 07:49:58;;;;;;;18.60;11.10;;;17.30;99.90;;;;;;5083273;28;19912;-33
2022/08/29 07:52:24;;;;;;;20.17;12.15;;;17.40;99.90;;;;;;5085911;28;20039;-33
2022/08/29 07:54:49;;;;;;;18.50;11.85;;;17.50;99.90;;;;;;5089039;28;20036;-35
2022/08/29 07:57:16;;;;;;;20.00;12.88;;;17.70;99.90;;;;;;5086652;28;20097;-34
2022/08/29 07:59:42;;;;;;;18.73;12.10;;;17.90;99.90;;;;;;5062562;28;20457;-33
2022/08/29 08:02:08;;;;;;;19.75;12.45;;;18.10;99.90;;;;;;5063310;28;20076;-33
2022/08/29 08:04:33;;;;;;;19.55;12.23;;;18.30;99.90;;;;;;5085596;28;20397;-32
2022/08/29 08:06:59;;;;;;;20.20;12.25;;;18.40;99.90;;;;;;5087104;28;20067;-35
2022/08/29 08:09:25;;;;;;;20.83;12.50;;;18.30;99.90;;;;;;5083173;28;20027;-31
2022/08/29 08:11:50;;;;;;;18.35;11.70;;;18.50;99.90;;;;;;5080319;28;20619;-35
2022/08/29 08:14:16;;;;;;;17.05;10.75;;;18.70;99.90;;;;;;5087943;28;20078;-33
2022/08/29 08:16:42;;;;;;;16.88;10.57;;;19.20;99.90;;;;;;5081996;28;20059;-31
2022/08/29 08:19:07;;;;;;;17.30;11.45;;;19.60;99.90;;;;;;5088151;28;20032;-31
2022/08/29 08:21:33;;;;;;;23.15;12.52;;;19.60;99.90;;;;;;5084246;28;20032;-31
2022/08/29 08:23:59;;;;;;;17.88;11.48;;;19.80;99.90;;;;;;5061911;28;20307;-32
2022/08/29 08:26:25;;;;;;;18.73;12.10;;;19.60;99.90;;;;;;5085638;28;20031;-31
2022/08/29 08:28:51;;;;;;;18.45;11.95;;;19.70;99.90;;;;;;5085790;28;20488;-33
2022/08/29 08:31:18;;;;;;;16.77;11.02;;;19.60;99.90;;;;;;5082867;28;20115;-35
2022/08/29 08:33:45;;;;;;;15.67;11.27;;;19.90;99.90;;;;;;5087792;28;20066;-31
2022/08/29 08:36:29;;;;;;;16.30;10.05;;;20.20;99.90;;;;;;5089132;28;20055;-31
2022/08/29 08:38:57;;;;;;;15.35;10.05;;;20.60;99.90;;;;;;5067003;28;20507;-32
2022/08/29 08:41:22;;;;;;;16.65;10.20;;;21.00;99.90;;;;;;5086748;28;20032;-31
2022/08/29 08:43:51;;;;;;;16.98;11.35;;;21.00;99.90;;;;;;5085673;28;20416;-31
2022/08/29 08:46:26;;;;;;;16.98;11.02;;;20.80;99.90;;;;;;5087425;28;20028;-32
2022/08/29 08:48:53;;;;;;;17.63;11.25;;;21.00;99.90;;;;;;5067728;28;20035;-34
2022/08/29 08:51:26;;;;;;;14.45;10.40;;;21.20;99.90;;;;;;5087682;28;20043;-34
2022/08/29 08:53:56;;;;;;;13.10;10.10;;;21.00;99.90;;;;;;5085487;28;20560;-35
2022/08/29 08:56:35;;;;;;;15.10;10.50;;;21.00;99.90;;;;;;5085486;28;20032;-30
2022/08/29 08:59:04;;;;;;;17.75;10.30;;;21.30;99.90;;;;;;5085331;28;20118;-31
2022/08/29 09:01:38;;;;;;;13.80;9.63;;;21.50;99.90;;;;;;5084924;28;20032;-31
2022/08/29 09:04:36;;;;;;;12.98;9.30;;;21.70;99.90;;;;;;5083602;28;20094;-31
2022/08/29 09:07:30;;;;;;;13.15;9.27;;;22.10;99.90;;;;;;5088285;28;20455;-33
2022/08/29 09:10:24;;;;;;;12.73;8.73;;;21.80;99.90;;;;;;5083030;28;20020;-31
2022/08/29 09:12:50;;;;;;;12.65;8.95;;;22.20;99.90;;;;;;5081867;28;20081;-32
2022/08/29 09:15:27;;;;;;;15.43;9.50;;;22.40;99.90;;;;;;5087672;28;20016;-31
2022/08/29 09:18:34;;;;;;;12.40;9.65;;;22.70;99.90;;;;;;5082859;28;20290;-31
2022/08/29 09:21:03;;;;;;;13.57;8.95;;;23.00;99.90;;;;;;5081236;28;20122;-32
2022/08/29 09:23:46;;;;;;;14.13;9.48;;;23.50;99.90;;;;;;5082688;28;20042;-31
2022/08/29 09:26:15;;;;;;;12.25;9.10;;;22.80;99.90;;;;;;5086347;28;20036;-32
2022/08/29 09:28:41;;;;;;;14.52;8.77;;;22.70;99.90;;;;;;5082966;28;20065;-31
2022/08/29 09:31:23;;;;;;;16.30;9.68;;;22.60;99.90;;;;;;5087033;28;20047;-32
2022/08/29 09:33:58;;;;;;;12.07;8.25;;;22.60;99.90;;;;;;5088456;28;20738;-32
2022/08/29 09:36:40;;;;;;;11.35;9.02;;;22.40;99.90;;;;;;5082806;28;20105;-32
2022/08/29 09:39:14;;;;;;;11.13;7.82;;;22.40;99.90;;;;;;5084185;28;20234;-33
2022/08/29 09:41:40;;;;;;;11.95;7.68;;;22.50;99.90;;;;;;5086048;28;20053;-31
2022/08/29 09:44:11;;;;;;;11.80;8.65;;;23.00;99.90;;;;;;5084892;28;20498;-31
2022/08/29 09:46:37;;;;;;;10.15;8.05;;;23.30;99.90;;;;;;5085139;28;20654;-31
2022/08/29 09:49:02;;;;;;;11.48;9.05;;;23.20;99.90;;;;;;5087369;28;20116;-31
2022/08/29 09:51:33;;;;;;;13.77;8.48;;;23.10;99.90;;;;;;5082699;28;20462;-36
2022/08/29 09:54:17;;;;;;;10.85;7.38;;;23.30;99.90;;;;;;5086611;28;21141;-32
2022/08/29 09:56:59;;;;;;;10.93;7.95;;;23.70;99.90;;;;;;5084827;28;20033;-33
2022/08/29 09:59:34;;;;;;;14.38;9.73;;;24.30;99.40;;;;;;5087453;28;20103;-32
2022/08/29 10:02:14;;;;;;;11.68;7.70;;;24.20;99.10;;;;;;5080671;28;20047;-32
2022/08/29 10:04:42;;;;;;;9.32;7.78;;;23.30;96.90;;;;;;5087583;28;20078;-32
2022/08/29 10:07:13;;;;;;;7.85;6.45;;;23.00;98.60;;;;;;5080475;28;20024;-31
2022/08/29 10:09:39;;;;;;;8.85;7.57;;;23.00;98.40;;;;;;5085212;28;20028;-34
2022/08/29 10:12:16;;;;;;;10.00;6.97;;;23.30;99.80;;;;;;5084400;28;20508;-32
2022/08/29 10:14:58;;;;;;;11.70;6.63;;;23.30;99.90;;;;;;5083009;28;20486;-32
2022/08/29 10:20:19;;;;;;;14.05;8.07;;;22.90;98.40;;;;;;5082518;28;20105;-30
2022/08/29 10:22:50;;;;;;;8.57;6.38;;;23.00;93.40;;;;;;5068005;28;20115;-31
2022/08/29 10:25:19;;;;;;;7.07;6.38;;;23.10;98.90;;;;;;5082661;28;20073;-34
2022/08/29 10:28:22;;;;;;;7.57;6.47;;;23.00;97.50;;;;;;5086478;28;20456;-32
2022/08/29 10:31:07;;;;;;;8.98;6.57;;;23.00;96.80;;;;;;5070639;28;20494;-32
2022/08/29 10:33:39;;;;;;;6.22;5.45;;;23.00;93.20;;;;;;5083524;28;20031;-31
2022/08/29 10:36:15;;;;;;;6.30;5.13;;;22.90;96.70;;;;;;5081029;28;20028;-32
2022/08/29 10:38:48;;;;;;;6.93;4.93;;;23.30;94.50;;;;;;5085325;28;20028;-33
2022/08/29 10:41:23;;;;;;;7.03;5.38;;;23.70;94.40;;;;;;5085924;28;20020;-34
2022/08/29 10:43:54;;;;;;;7.97;5.78;;;24.20;93.70;;;;;;5085822;28;20489;-31
2022/08/29 10:46:22;;;;;;;7.80;5.85;;;24.50;90.70;;;;;;5081949;28;20385;-31
2022/08/29 10:49:00;;;;;;;8.23;6.20;;;24.50;90.50;;;;;;5084474;28;20032;-31
2022/08/29 10:51:45;;;;;;;6.60;5.57;;;24.20;93.00;;;;;;5080606;28;20639;-31
2022/08/29 10:54:31;;;;;;;6.68;5.45;;;23.90;89.70;;;;;;5084691;28;20036;-31
2022/08/29 10:57:00;;;;;;;6.70;5.50;;;23.60;92.40;;;;;;5083148;28;20028;-32
2022/08/29 10:59:44;;;;;;;7.95;6.10;;;23.20;95.20;;;;;;5084585;28;20109;-31
2022/08/29 11:02:13;;;;;;;7.38;6.00;;;22.80;94.90;;;;;;5080685;28;20047;-31
2022/08/29 11:04:44;;;;;;;8.60;5.55;;;22.80;90.50;;;;;;5083100;28;20025;-31
2022/08/29 11:07:24;;;;;;;8.10;5.95;;;22.90;92.80;;;;;;5059565;28;20028;-31
2022/08/29 11:10:02;;;;;;;7.63;5.72;;;23.00;96.50;;;;;;5065032;28;20279;-35
2022/08/29 11:12:52;;;;;;;8.55;6.30;;;23.10;94.20;;;;;;5083660;28;20020;-32
2022/08/29 11:15:24;;;;;;;7.15;5.53;;;22.90;94.00;;;;;;5077873;28;20027;-33
2022/08/29 11:18:03;;;;;;;8.15;6.32;;;22.90;94.70;;;;;;5084052;28;20023;-31
2022/08/29 11:20:34;;;;;;;7.55;6.07;;;22.80;93.60;;;;;;5084330;28;20046;-34
2022/08/29 11:23:14;;;;;;;6.80;5.88;;;23.10;96.20;;;;;;5082842;28;20435;-32
2022/08/29 11:25:40;;;;;;;7.55;5.88;;;23.50;92.20;;;;;;5077750;28;20069;-33
2022/08/29 11:28:28;;;;;;;9.52;5.68;;;23.70;91.80;;;;;;5083744;28;20028;-32
2022/08/29 11:31:05;;;;;;;8.18;6.18;;;23.90;87.50;;;;;;5081300;28;20082;-33
2022/08/29 11:33:44;;;;;;;9.32;6.90;;;24.10;90.00;;;;;;5083548;28;20060;-34
2022/08/29 11:36:40;;;;;;;7.72;5.53;;;23.90;89.80;;;;;;5085708;28;20032;-33
2022/08/29 11:39:27;;;;;;;7.40;6.70;;;24.00;93.00;;;;;;5080363;28;20036;-32
2022/08/29 11:41:56;;;;;;;8.68;6.20;;;24.10;94.10;;;;;;5079043;28;20031;-32
2022/08/29 11:44:34;;;;;;;7.57;5.93;;;24.40;90.20;;;;;;5060424;28;20140;-35
2022/08/29 11:47:00;;;;;;;12.52;6.18;;;24.30;91.40;;;;;;5081106;28;20115;-35
2022/08/29 11:49:29;;;;;;;8.55;6.13;;;24.20;87.80;;;;;;5082324;28;20416;-32
2022/08/29 11:52:07;;;;;;;6.75;5.45;;;24.10;92.80;;;;;;5081806;28;20130;-36
2022/08/29 11:54:33;;;;;;;6.50;5.28;;;24.20;91.10;;;;;;5082514;28;20028;-36
2022/08/29 11:57:02;;;;;;;7.97;5.68;;;24.40;89.10;;;;;;5083261;28;20565;-32
2022/08/29 11:59:55;;;;;;;7.25;5.75;;;24.10;87.50;;;;;;5081497;28;20032;-32
2022/08/29 12:02:26;;;;;;;7.93;5.32;;;24.00;85.00;;;;;;5083144;28;20036;-33
2022/08/29 12:04:58;;;;;;;6.93;6.20;;;24.10;87.50;;;;;;5085113;28;20020;-33
2022/08/29 12:07:46;;;;;;;7.95;5.32;;;24.10;88.10;;;;;;5084482;28;20441;-34
2022/08/29 12:10:18;;;;;;;7.07;5.82;;;24.10;84.10;;;;;;5081286;28;20496;-31
2022/08/29 12:12:53;;;;;;;7.80;5.75;;;24.10;90.00;;;;;;5080674;28;20089;-31
2022/08/29 12:15:39;;;;;;;6.75;5.93;;;24.00;88.80;;;;;;5084417;28;20028;-33
2022/08/29 12:18:15;;;;;;;8.10;6.15;;;23.80;89.90;;;;;;5085475;28;20028;-34
2022/08/29 12:20:43;;;;;;;6.97;5.65;;;23.70;85.50;;;;;;5081333;28;20048;-32
2022/08/29 12:23:11;;;;;;;7.72;5.38;;;23.80;87.30;;;;;;5083732;28;20434;-33
2022/08/29 12:25:45;;;;;;;6.55;5.15;;;23.90;91.80;;;;;;5086002;28;20067;-35
2022/08/29 12:28:19;;;;;;;8.82;5.47;;;23.90;89.90;;;;;;5088065;28;20039;-32
2022/08/29 12:30:58;;;;;;;6.38;5.78;;;23.90;92.90;;;;;;5063673;28;20028;-31
2022/08/29 12:33:48;;;;;;;7.35;5.70;;;23.90;91.90;;;;;;5059035;28;20050;-31
2022/08/29 12:36:24;;;;;;;7.00;5.72;;;23.80;90.80;;;;;;5086207;28;20480;-34
2022/08/29 12:39:18;;;;;;;6.25;5.05;;;23.70;92.40;;;;;;5088499;28;20039;-32
2022/08/29 12:42:12;;;;;;;5.93;5.32;;;23.70;90.30;;;;;;5082795;28;20024;-34
2022/08/29 12:44:40;;;;;;;7.90;5.43;;;23.70;91.90;;;;;;5087550;28;20020;-33
2022/08/29 12:47:31;;;;;;;6.47;5.15;;;23.90;94.80;;;;;;5085981;28;20114;-32
2022/08/29 12:50:00;;;;;;;9.05;5.97;;;23.90;87.90;;;;;;5084708;28;20020;-32
2022/08/29 12:52:32;;;;;;;5.72;5.05;;;23.90;93.30;;;;;;5101574;28;20016;-31
2022/08/29 12:55:15;;;;;;;6.97;5.60;;;24.00;91.40;;;;;;5103282;28;20057;-31
2022/08/29 12:57:44;;;;;;;18.48;5.80;;;24.20;93.40;;;;;;5101103;28;20024;-32
2022/08/29 13:00:15;;;;;;;5.90;5.22;;;24.30;91.50;;;;;;5098160;28;20031;-34
2022/08/29 13:02:53;;;;;;;5.70;5.00;;;24.40;90.00;;;;;;5100835;28;20291;-33